sensor_id;sensor_type;location;lat;lon;timestamp;pressure;altitude;pressure_sealevel;temperature;humidity
33635;BME280;19972;54.360;10.076;2022-08-16T00:00:38;101159.66;;;18.52;100.00
33635;BME280;19972;54.360;10.076;2022-08-16T00:03:06;101146.50;;;18.49;100.00
33635;BME280;19972;54.360;10.076;2022-08-16T00:05:39;101149.72;;;18.43;100.00
33635;BME280;19972;54.360;10.076;2022-08-16T00:08:14;101130.38;;;18.49;100.00
33635;BME280;19972;54.360;10.076;2022-08-16T00:11:02;101127.25;;;18.54;100.00
33635;BME280;19972;54.360;10.076;2022-08-16T00:13:28;101127.53;;;18.41;100.00
33635;BME280;19972;54.360;10.076;2022-08-16T00:15:55;101129.78;;;18.36;100.00
33635;BME280;19972;54.360;10.076;2022-08-16T00:18:23;101131.03;;;18.32;100.00
33635;BME280;19972;54.360;10.076;2022-08-16T00:20:55;101194.41;;;18.25;100.00
33635;BME280;19972;54.360;10.076;2022-08-16T00:23:22;101352.38;;;18.21;100.00
33635;BME280;19972;54.360;10.076;2022-08-16T00:25:59;101347.88;;;18.22;100.00
33635;BME280;19972;54.360;10.076;2022-08-16T00:28:46;101352.28;;;18.23;100.00
33635;BME280;19972;54.360;10.076;2022-08-16T00:31:19;101346.44;;;18.17;100.00
33635;BME280;19972;54.360;10.076;2022-08-16T00:33:49;101353.06;;;18.13;100.00
33635;BME280;19972;54.360;10.076;2022-08-16T00:36:16;101357.75;;;18.21;100.00
33635;BME280;19972;54.360;10.076;2022-08-16T00:38:42;101364.00;;;18.22;100.00
33635;BME280;19972;54.360;10.076;2022-08-16T00:41:09;101368.84;;;18.28;100.00
33635;BME280;19972;54.360;10.076;2022-08-16T00:43:37;101374.47;;;18.25;100.00
33635;BME280;19972;54.360;10.076;2022-08-16T00:46:53;101365.19;;;18.29;100.00
33635;BME280;19972;54.360;10.076;2022-08-16T00:49:22;101364.72;;;18.24;100.00
33635;BME280;19972;54.360;10.076;2022-08-16T00:51:51;101374.69;;;18.33;100.00
33635;BME280;19972;54.360;10.076;2022-08-16T00:54:21;101374.84;;;18.41;100.00
33635;BME280;19972;54.360;10.076;2022-08-16T00:56:50;101379.63;;;18.37;100.00
33635;BME280;19972;54.360;10.076;2022-08-16T00:59:28;101376.00;;;18.48;100.00
33635;BME280;19972;54.360;10.076;2022-08-16T01:01:59;101381.81;;;18.43;100.00
33635;BME280;19972;54.360;10.076;2022-08-16T01:04:46;101380.53;;;18.38;100.00
33635;BME280;19972;54.360;10.076;2022-08-16T01:07:33;101395.44;;;18.31;100.00
33635;BME280;19972;54.360;10.076;2022-08-16T01:10:18;101397.69;;;18.26;100.00
33635;BME280;19972;54.360;10.076;2022-08-16T01:12:45;101396.25;;;18.22;100.00
33635;BME280;19972;54.360;10.076;2022-08-16T01:15:12;101396.25;;;18.22;100.00
33635;BME280;19972;54.360;10.076;2022-08-16T01:17:40;101386.22;;;18.24;100.00
33635;BME280;19972;54.360;10.076;2022-08-16T01:20:10;101387.84;;;18.36;100.00
33635;BME280;19972;54.360;10.076;2022-08-16T01:23:03;101384.16;;;18.37;100.00
33635;BME280;19972;54.360;10.076;2022-08-16T01:25:37;101385.63;;;18.41;100.00
33635;BME280;19972;54.360;10.076;2022-08-16T01:28:12;101383.06;;;18.39;100.00
33635;BME280;19972;54.360;10.076;2022-08-16T01:30:49;101383.63;;;18.43;100.00
33635;BME280;19972;54.360;10.076;2022-08-16T01:33:19;101376.00;;;18.48;100.00
33635;BME280;19972;54.360;10.076;2022-08-16T01:36:01;101370.38;;;18.51;100.00
33635;BME280;19972;54.360;10.076;2022-08-16T01:38:43;101369.31;;;18.63;100.00
33635;BME280;19972;54.360;10.076;2022-08-16T01:41:22;101358.28;;;18.66;100.00
33635;BME280;19972;54.360;10.076;2022-08-16T01:43:51;101359.94;;;18.58;100.00
33635;BME280;19972;54.360;10.076;2022-08-16T01:46:26;101364.31;;;18.80;100.00
33635;BME280;19972;54.360;10.076;2022-08-16T01:49:10;101345.75;;;18.77;100.00
33635;BME280;19972;54.360;10.076;2022-08-16T01:51:38;101344.88;;;18.76;100.00
33635;BME280;19972;54.360;10.076;2022-08-16T01:54:06;101345.56;;;18.68;100.00
33635;BME280;19972;54.360;10.076;2022-08-16T01:56:33;101340.09;;;18.80;100.00
33635;BME280;19972;54.360;10.076;2022-08-16T01:59:03;101330.59;;;18.76;100.00
33635;BME280;19972;54.360;10.076;2022-08-16T02:01:30;101325.22;;;18.76;100.00
33635;BME280;19972;54.360;10.076;2022-08-16T02:03:57;101311.34;;;18.80;100.00
33635;BME280;19972;54.360;10.076;2022-08-16T02:06:37;101303.63;;;19.06;100.00
33635;BME280;19972;54.360;10.076;2022-08-16T02:09:12;101292.69;;;18.98;100.00
33635;BME280;19972;54.360;10.076;2022-08-16T02:11:45;101290.16;;;18.96;100.00
33635;BME280;19972;54.360;10.076;2022-08-16T02:14:20;101271.28;;;18.87;100.00
33635;BME280;19972;54.360;10.076;2022-08-16T02:16:51;101272.28;;;18.86;100.00
33635;BME280;19972;54.360;10.076;2022-08-16T02:19:18;101264.94;;;18.88;100.00
33635;BME280;19972;54.360;10.076;2022-08-16T02:21:49;101262.97;;;18.90;100.00
33635;BME280;19972;54.360;10.076;2022-08-16T02:24:38;101255.88;;;18.89;100.00
33635;BME280;19972;54.360;10.076;2022-08-16T02:27:08;101253.75;;;18.83;100.00
33635;BME280;19972;54.360;10.076;2022-08-16T02:29:36;101254.44;;;18.85;100.00
33635;BME280;19972;54.360;10.076;2022-08-16T02:32:08;101251.63;;;18.96;100.00
33635;BME280;19972;54.360;10.076;2022-08-16T02:34:55;101247.06;;;18.87;100.00
33635;BME280;19972;54.360;10.076;2022-08-16T02:37:22;101249.75;;;18.87;100.00
33635;BME280;19972;54.360;10.076;2022-08-16T02:39:48;101248.25;;;18.94;100.00
33635;BME280;19972;54.360;10.076;2022-08-16T02:42:19;101238.03;;;18.88;100.00
33635;BME280;19972;54.360;10.076;2022-08-16T02:44:46;101235.22;;;18.99;100.00
33635;BME280;19972;54.360;10.076;2022-08-16T02:47:14;101226.44;;;19.07;100.00
33635;BME280;19972;54.360;10.076;2022-08-16T02:49:51;101225.28;;;19.09;100.00
33635;BME280;19972;54.360;10.076;2022-08-16T02:52:38;101227.28;;;19.17;100.00
33635;BME280;19972;54.360;10.076;2022-08-16T02:55:10;101212.56;;;19.11;100.00
33635;BME280;19972;54.360;10.076;2022-08-16T02:57:40;101219.22;;;19.17;100.00
33635;BME280;19972;54.360;10.076;2022-08-16T03:00:20;101225.03;;;19.22;100.00
33635;BME280;19972;54.360;10.076;2022-08-16T03:03:00;101212.81;;;19.37;100.00
33635;BME280;19972;54.360;10.076;2022-08-16T03:05:28;101207.56;;;19.45;100.00
33635;BME280;19972;54.360;10.076;2022-08-16T03:07:57;101197.53;;;19.38;100.00
33635;BME280;19972;54.360;10.076;2022-08-16T03:10:25;101203.75;;;19.29;100.00
33635;BME280;19972;54.360;10.076;2022-08-16T03:12:59;101199.50;;;19.26;100.00
33635;BME280;19972;54.360;10.076;2022-08-16T03:15:27;101192.69;;;19.41;100.00
33635;BME280;19972;54.360;10.076;2022-08-16T03:17:53;101192.69;;;19.41;100.00
33635;BME280;19972;54.360;10.076;2022-08-16T03:20:21;101196.09;;;19.34;100.00
33635;BME280;19972;54.360;10.076;2022-08-16T03:22:58;101191.41;;;19.36;100.00
33635;BME280;19972;54.360;10.076;2022-08-16T03:25:27;101200.34;;;19.46;100.00
33635;BME280;19972;54.360;10.076;2022-08-16T03:28:09;101188.97;;;19.52;100.00
33635;BME280;19972;54.360;10.076;2022-08-16T03:30:36;101184.75;;;19.49;100.00
33635;BME280;19972;54.360;10.076;2022-08-16T03:33:04;101196.06;;;19.53;100.00
33635;BME280;19972;54.360;10.076;2022-08-16T03:35:35;101186.47;;;19.60;100.00
33635;BME280;19972;54.360;10.076;2022-08-16T03:38:08;101186.69;;;19.57;100.00
33635;BME280;19972;54.360;10.076;2022-08-16T03:40:56;101179.34;;;19.49;100.00
33635;BME280;19972;54.360;10.076;2022-08-16T03:43:23;101174.94;;;19.58;100.00
33635;BME280;19972;54.360;10.076;2022-08-16T03:46:11;101167.44;;;19.62;100.00
33635;BME280;19972;54.360;10.076;2022-08-16T03:48:58;101160.63;;;19.67;100.00
33635;BME280;19972;54.360;10.076;2022-08-16T03:51:27;101159.91;;;19.65;100.00
33635;BME280;19972;54.360;10.076;2022-08-16T03:53:53;101163.59;;;19.64;100.00
33635;BME280;19972;54.360;10.076;2022-08-16T03:56:27;101161.75;;;19.55;100.00
33635;BME280;19972;54.360;10.076;2022-08-16T03:58:56;101155.81;;;19.51;100.00
33635;BME280;19972;54.360;10.076;2022-08-16T04:01:23;101162.03;;;19.71;100.00
33635;BME280;19972;54.360;10.076;2022-08-16T04:03:55;101165.16;;;19.57;100.00
33635;BME280;19972;54.360;10.076;2022-08-16T04:06:21;101164.03;;;19.50;100.00
33635;BME280;19972;54.360;10.076;2022-08-16T04:08:48;101167.75;;;19.49;100.00
33635;BME280;19972;54.360;10.076;2022-08-16T04:11:14;101175.84;;;19.39;100.00
33635;BME280;19972;54.360;10.076;2022-08-16T04:13:43;101175.94;;;19.47;100.00
33635;BME280;19972;54.360;10.076;2022-08-16T04:16:29;101173.72;;;19.23;100.00
33635;BME280;19972;54.360;10.076;2022-08-16T04:18:59;101192.41;;;19.15;100.00
33635;BME280;19972;54.360;10.076;2022-08-16T04:21:34;101209.44;;;19.06;100.00
33635;BME280;19972;54.360;10.076;2022-08-16T04:24:11;101208.59;;;18.96;100.00
33635;BME280;19972;54.360;10.076;2022-08-16T04:26:38;101218.06;;;19.00;100.00
33635;BME280;19972;54.360;10.076;2022-08-16T04:29:11;101219.91;;;18.99;100.00
33635;BME280;19972;54.360;10.076;2022-08-16T04:31:48;101245.41;;;18.95;100.00
33635;BME280;19972;54.360;10.076;2022-08-16T04:34:25;101252.91;;;18.82;100.00
33635;BME280;19972;54.360;10.076;2022-08-16T04:36:53;101268.91;;;18.84;100.00
33635;BME280;19972;54.360;10.076;2022-08-16T04:39:21;101273.00;;;18.97;100.00
33635;BME280;19972;54.360;10.076;2022-08-16T04:41:49;101278.66;;;18.85;100.00
33635;BME280;19972;54.360;10.076;2022-08-16T04:44:23;101290.41;;;18.84;100.00
33635;BME280;19972;54.360;10.076;2022-08-16T04:47:10;101295.56;;;19.06;100.00
33635;BME280;19972;54.360;10.076;2022-08-16T04:49:49;101302.63;;;18.88;100.00
33635;BME280;19972;54.360;10.076;2022-08-16T04:52:17;101309.53;;;18.90;100.00
33635;BME280;19972;54.360;10.076;2022-08-16T04:55:04;101308.53;;;18.82;100.00
33635;BME280;19972;54.360;10.076;2022-08-16T04:57:31;101315.34;;;18.86;100.00
33635;BME280;19972;54.360;10.076;2022-08-16T04:59:58;101317.63;;;18.90;100.00
33635;BME280;19972;54.360;10.076;2022-08-16T05:02:47;101323.81;;;18.81;100.00
33635;BME280;19972;54.360;10.076;2022-08-16T05:05:24;101341.63;;;18.72;100.00
33635;BME280;19972;54.360;10.076;2022-08-16T05:07:58;101363.16;;;18.72;100.00
33635;BME280;19972;54.360;10.076;2022-08-16T05:10:27;101379.00;;;18.76;100.00
33635;BME280;19972;54.360;10.076;2022-08-16T05:12:56;101392.00;;;18.70;100.00
33635;BME280;19972;54.360;10.076;2022-08-16T05:15:23;101401.97;;;18.80;100.00
33635;BME280;19972;54.360;10.076;2022-08-16T05:17:50;101416.41;;;18.79;100.00
33635;BME280;19972;54.360;10.076;2022-08-16T05:20:24;101421.94;;;18.77;100.00
33635;BME280;19972;54.360;10.076;2022-08-16T05:23:12;101438.94;;;18.78;100.00
33635;BME280;19972;54.360;10.076;2022-08-16T05:25:40;101453.88;;;18.70;100.00
33635;BME280;19972;54.360;10.076;2022-08-16T05:28:15;101473.19;;;18.64;100.00
33635;BME280;19972;54.360;10.076;2022-08-16T05:30:42;101482.25;;;18.63;100.00
33635;BME280;19972;54.360;10.076;2022-08-16T05:33:09;101493.03;;;18.63;100.00
33635;BME280;19972;54.360;10.076;2022-08-16T05:35:42;101503.53;;;18.66;99.79
33635;BME280;19972;54.360;10.076;2022-08-16T05:38:20;101518.03;;;18.75;99.13
33635;BME280;19972;54.360;10.076;2022-08-16T05:41:05;101552.88;;;18.77;98.57
33635;BME280;19972;54.360;10.076;2022-08-16T05:43:32;101561.63;;;18.69;98.32
33635;BME280;19972;54.360;10.076;2022-08-16T05:46:12;101567.91;;;18.79;97.74
33635;BME280;19972;54.360;10.076;2022-08-16T05:48:59;101590.53;;;18.97;97.14
33635;BME280;19972;54.360;10.076;2022-08-16T05:51:35;101607.09;;;18.93;96.89
33635;BME280;19972;54.360;10.076;2022-08-16T05:54:06;101624.50;;;18.89;96.70
33635;BME280;19972;54.360;10.076;2022-08-16T05:56:35;101632.56;;;18.89;96.50
33635;BME280;19972;54.360;10.076;2022-08-16T05:59:04;101635.78;;;19.04;96.16
33635;BME280;19972;54.360;10.076;2022-08-16T06:01:32;101663.59;;;18.93;96.18
33635;BME280;19972;54.360;10.076;2022-08-16T06:04:05;101682.19;;;18.96;96.00
33635;BME280;19972;54.360;10.076;2022-08-16T06:06:52;101698.09;;;18.99;95.79
33635;BME280;19972;54.360;10.076;2022-08-16T06:09:23;101709.81;;;18.98;95.66
33635;BME280;19972;54.360;10.076;2022-08-16T06:11:50;101726.22;;;18.95;95.49
33635;BME280;19972;54.360;10.076;2022-08-16T06:14:17;101739.13;;;19.12;95.12
33635;BME280;19972;54.360;10.076;2022-08-16T06:16:44;101747.44;;;19.09;95.10
33635;BME280;19972;54.360;10.076;2022-08-16T06:19:16;101746.72;;;19.07;95.07
33635;BME280;19972;54.360;10.076;2022-08-16T06:21:44;101756.94;;;19.24;94.81
33635;BME280;19972;54.360;10.076;2022-08-16T06:24:20;101759.38;;;19.28;94.69
33635;BME280;19972;54.360;10.076;2022-08-16T06:27:07;101766.72;;;19.46;94.43
33635;BME280;19972;54.360;10.076;2022-08-16T06:29:33;101772.72;;;19.50;94.34
33635;BME280;19972;54.360;10.076;2022-08-16T06:32:01;101785.16;;;19.62;94.23
33635;BME280;19972;54.360;10.076;2022-08-16T06:34:30;101775.09;;;19.64;94.22
33635;BME280;19972;54.360;10.076;2022-08-16T06:37:16;101778.53;;;19.66;94.17
33635;BME280;19972;54.360;10.076;2022-08-16T06:39:43;101766.63;;;19.69;94.17
33635;BME280;19972;54.360;10.076;2022-08-16T06:42:16;101767.22;;;19.72;94.16
33635;BME280;19972;54.360;10.076;2022-08-16T06:44:44;101756.25;;;19.85;94.18
33635;BME280;19972;54.360;10.076;2022-08-16T06:47:12;101740.19;;;20.14;94.02
33635;BME280;19972;54.360;10.076;2022-08-16T06:49:43;101714.31;;;20.02;94.36
33635;BME280;19972;54.360;10.076;2022-08-16T06:52:20;101695.91;;;20.07;94.49
33635;BME280;19972;54.360;10.076;2022-08-16T06:55:08;101669.09;;;20.15;94.73
33635;BME280;19972;54.360;10.076;2022-08-16T06:57:40;101656.16;;;20.49;94.54
33635;BME280;19972;54.360;10.076;2022-08-16T07:00:09;101641.53;;;20.62;94.66
33635;BME280;19972;54.360;10.076;2022-08-16T07:02:49;101626.22;;;20.62;95.06
33635;BME280;19972;54.360;10.076;2022-08-16T07:05:19;101617.94;;;20.93;95.12
33635;BME280;19972;54.360;10.076;2022-08-16T07:07:52;101603.94;;;21.26;95.37
33635;BME280;19972;54.360;10.076;2022-08-16T07:10:19;101582.22;;;21.18;96.27
33635;BME280;19972;54.360;10.076;2022-08-16T07:12:52;101563.91;;;21.22;97.32
33635;BME280;19972;54.360;10.076;2022-08-16T07:15:36;101549.06;;;21.35;98.34
33635;BME280;19972;54.360;10.076;2022-08-16T07:18:17;101511.06;;;21.47;100.00
33635;BME280;19972;54.360;10.076;2022-08-16T07:20:46;101482.94;;;21.67;100.00
33635;BME280;19972;54.360;10.076;2022-08-16T07:23:14;101451.31;;;22.13;100.00
33635;BME280;19972;54.360;10.076;2022-08-16T07:25:42;101419.44;;;22.07;100.00
33635;BME280;19972;54.360;10.076;2022-08-16T07:28:12;101378.78;;;22.34;100.00
33635;BME280;19972;54.360;10.076;2022-08-16T07:30:49;101349.31;;;21.87;100.00
33635;BME280;19972;54.360;10.076;2022-08-16T07:33:16;101319.09;;;22.36;100.00
33635;BME280;19972;54.360;10.076;2022-08-16T07:36:07;101275.31;;;22.40;100.00
33635;BME280;19972;54.360;10.076;2022-08-16T07:38:35;101252.50;;;21.83;100.00
33635;BME280;19972;54.360;10.076;2022-08-16T07:41:02;101225.66;;;21.90;100.00
33635;BME280;19972;54.360;10.076;2022-08-16T07:43:36;101195.56;;;22.10;100.00
33635;BME280;19972;54.360;10.076;2022-08-16T07:46:07;101174.72;;;22.45;100.00
33635;BME280;19972;54.360;10.076;2022-08-16T07:48:54;101141.47;;;22.77;100.00
33635;BME280;19972;54.360;10.076;2022-08-16T07:51:28;101110.66;;;22.62;100.00
33635;BME280;19972;54.360;10.076;2022-08-16T07:53:57;101076.16;;;22.72;100.00
33635;BME280;19972;54.360;10.076;2022-08-16T07:56:35;101061.22;;;22.35;100.00
33635;BME280;19972;54.360;10.076;2022-08-16T07:59:03;101046.03;;;22.34;100.00
33635;BME280;19972;54.360;10.076;2022-08-16T08:01:30;101039.94;;;22.40;100.00
33635;BME280;19972;54.360;10.076;2022-08-16T08:03:57;101009.81;;;22.76;100.00
33635;BME280;19972;54.360;10.076;2022-08-16T08:06:27;100991.06;;;22.58;100.00
33635;BME280;19972;54.360;10.076;2022-08-16T08:08:55;100967.53;;;22.83;100.00
33635;BME280;19972;54.360;10.076;2022-08-16T08:11:25;100937.03;;;23.06;100.00
33635;BME280;19972;54.360;10.076;2022-08-16T08:13:54;100896.66;;;22.88;100.00
33635;BME280;19972;54.360;10.076;2022-08-16T08:16:29;100884.25;;;22.85;100.00
33635;BME280;19972;54.360;10.076;2022-08-16T08:18:58;100872.59;;;22.85;100.00
33635;BME280;19972;54.360;10.076;2022-08-16T08:21:28;100843.66;;;22.85;100.00
33635;BME280;19972;54.360;10.076;2022-08-16T08:24:15;100796.28;;;22.81;100.00
33635;BME280;19972;54.360;10.076;2022-08-16T08:26:42;100805.94;;;23.15;100.00
33635;BME280;19972;54.360;10.076;2022-08-16T08:29:09;100783.44;;;22.83;100.00
33635;BME280;19972;54.360;10.076;2022-08-16T08:31:37;100783.97;;;22.71;100.00
33635;BME280;19972;54.360;10.076;2022-08-16T08:34:07;100774.78;;;23.42;100.00
33635;BME280;19972;54.360;10.076;2022-08-16T08:36:34;100742.34;;;23.57;100.00
33635;BME280;19972;54.360;10.076;2022-08-16T08:39:05;100735.91;;;23.35;100.00
33635;BME280;19972;54.360;10.076;2022-08-16T08:41:39;100715.22;;;23.80;100.00
33635;BME280;19972;54.360;10.076;2022-08-16T08:44:08;100710.44;;;23.59;100.00
33635;BME280;19972;54.360;10.076;2022-08-16T08:46:54;100709.25;;;23.99;100.00
33635;BME280;19972;54.360;10.076;2022-08-16T08:49:27;100700.19;;;24.36;100.00
33635;BME280;19972;54.360;10.076;2022-08-16T08:52:14;100712.34;;;24.40;100.00
33635;BME280;19972;54.360;10.076;2022-08-16T08:55:05;100692.09;;;24.58;100.00
33635;BME280;19972;54.360;10.076;2022-08-16T08:57:38;100696.91;;;24.41;100.00
33635;BME280;19972;54.360;10.076;2022-08-16T09:00:07;100695.69;;;24.14;100.00
33635;BME280;19972;54.360;10.076;2022-08-16T09:02:40;100713.66;;;24.44;100.00
33635;BME280;19972;54.360;10.076;2022-08-16T09:05:11;100707.56;;;24.93;100.00
33635;BME280;19972;54.360;10.076;2022-08-16T09:07:42;100709.97;;;24.52;100.00
33635;BME280;19972;54.360;10.076;2022-08-16T09:10:29;100705.53;;;24.44;100.00
33635;BME280;19972;54.360;10.076;2022-08-16T09:12:57;100711.31;;;24.56;100.00
33635;BME280;19972;54.360;10.076;2022-08-16T09:15:24;100713.72;;;24.66;100.00
33635;BME280;19972;54.360;10.076;2022-08-16T09:17:59;100718.22;;;25.10;100.00
33635;BME280;19972;54.360;10.076;2022-08-16T09:20:28;100710.88;;;24.74;100.00
33635;BME280;19972;54.360;10.076;2022-08-16T09:22:56;100713.59;;;24.74;100.00
33635;BME280;19972;54.360;10.076;2022-08-16T09:25:26;100719.16;;;24.87;100.00
33635;BME280;19972;54.360;10.076;2022-08-16T09:28:00;100716.56;;;24.79;100.00
33635;BME280;19972;54.360;10.076;2022-08-16T09:30:35;100718.50;;;25.00;100.00
33635;BME280;19972;54.360;10.076;2022-08-16T09:33:11;100717.94;;;24.54;100.00
33635;BME280;19972;54.360;10.076;2022-08-16T09:35:39;100712.59;;;24.96;100.00
33635;BME280;19972;54.360;10.076;2022-08-16T09:38:08;100705.31;;;25.18;100.00
33635;BME280;19972;54.360;10.076;2022-08-16T09:40:38;100714.13;;;24.84;100.00
33635;BME280;19972;54.360;10.076;2022-08-16T09:43:10;100711.44;;;24.69;100.00
33635;BME280;19972;54.360;10.076;2022-08-16T09:45:58;100708.63;;;25.14;100.00
33635;BME280;19972;54.360;10.076;2022-08-16T09:48:25;100714.44;;;25.11;100.00
33635;BME280;19972;54.360;10.076;2022-08-16T09:51:11;100722.91;;;24.86;100.00
33635;BME280;19972;54.360;10.076;2022-08-16T09:53:40;100714.72;;;25.01;100.00
33635;BME280;19972;54.360;10.076;2022-08-16T09:56:22;100711.06;;;25.09;100.00
33635;BME280;19972;54.360;10.076;2022-08-16T09:58:52;100717.91;;;25.26;100.00
33635;BME280;19972;54.360;10.076;2022-08-16T10:01:37;100711.72;;;25.11;100.00
33635;BME280;19972;54.360;10.076;2022-08-16T10:04:11;100698.00;;;25.40;100.00
33635;BME280;19972;54.360;10.076;2022-08-16T10:06:57;100697.75;;;25.35;100.00
33635;BME280;19972;54.360;10.076;2022-08-16T10:09:29;100696.38;;;25.24;100.00
33635;BME280;19972;54.360;10.076;2022-08-16T10:12:15;100679.66;;;25.21;100.00
33635;BME280;19972;54.360;10.076;2022-08-16T10:15:09;100690.56;;;25.06;100.00
33635;BME280;19972;54.360;10.076;2022-08-16T10:17:47;100686.47;;;25.60;100.00
33635;BME280;19972;54.360;10.076;2022-08-16T10:20:32;100690.28;;;25.93;100.00
33635;BME280;19972;54.360;10.076;2022-08-16T10:23:02;100685.53;;;25.74;100.00
33635;BME280;19972;54.360;10.076;2022-08-16T10:25:38;100688.41;;;25.94;100.00
33635;BME280;19972;54.360;10.076;2022-08-16T10:28:27;100682.72;;;26.30;100.00
33635;BME280;19972;54.360;10.076;2022-08-16T10:30:59;100700.19;;;26.08;100.00
33635;BME280;19972;54.360;10.076;2022-08-16T10:33:29;100697.31;;;26.16;100.00
33635;BME280;19972;54.360;10.076;2022-08-16T10:36:00;100694.41;;;26.24;100.00
33635;BME280;19972;54.360;10.076;2022-08-16T10:38:30;100686.84;;;26.61;100.00
33635;BME280;19972;54.360;10.076;2022-08-16T10:40:59;100696.41;;;27.04;100.00
33635;BME280;19972;54.360;10.076;2022-08-16T10:43:26;100662.91;;;27.50;100.00
33635;BME280;19972;54.360;10.076;2022-08-16T10:45:57;100667.22;;;26.85;100.00
33635;BME280;19972;54.360;10.076;2022-08-16T10:48:27;100680.06;;;27.04;100.00
33635;BME280;19972;54.360;10.076;2022-08-16T10:50:56;100644.00;;;27.09;100.00
33635;BME280;19972;54.360;10.076;2022-08-16T10:53:28;100665.41;;;27.58;100.00
33635;BME280;19972;54.360;10.076;2022-08-16T10:56:05;100687.34;;;28.23;100.00
33635;BME280;19972;54.360;10.076;2022-08-16T10:58:52;100796.75;;;28.35;100.00
33635;BME280;19972;54.360;10.076;2022-08-16T11:01:20;100854.38;;;28.91;100.00
33635;BME280;19972;54.360;10.076;2022-08-16T11:04:06;100916.38;;;29.17;100.00
33635;BME280;19972;54.360;10.076;2022-08-16T11:06:53;100870.28;;;30.22;100.00
33635;BME280;19972;54.360;10.076;2022-08-16T11:09:40;100852.19;;;29.27;100.00
33635;BME280;19972;54.360;10.076;2022-08-16T11:12:09;100821.50;;;29.88;100.00
33635;BME280;19972;54.360;10.076;2022-08-16T11:14:40;100805.28;;;29.23;100.00
33635;BME280;19972;54.360;10.076;2022-08-16T11:17:27;100865.63;;;27.84;100.00
33635;BME280;19972;54.360;10.076;2022-08-16T11:19:58;100876.53;;;27.71;100.00
33635;BME280;19972;54.360;10.076;2022-08-16T11:22:46;100878.25;;;28.51;100.00
33635;BME280;19972;54.360;10.076;2022-08-16T11:25:19;100865.59;;;28.63;100.00
33635;BME280;19972;54.360;10.076;2022-08-16T11:28:07;100814.53;;;30.35;100.00
33635;BME280;19972;54.360;10.076;2022-08-16T11:30:35;100768.03;;;30.47;100.00
33635;BME280;19972;54.360;10.076;2022-08-16T11:33:05;100737.06;;;29.85;100.00
33635;BME280;19972;54.360;10.076;2022-08-16T11:35:32;100734.84;;;30.37;100.00
33635;BME280;19972;54.360;10.076;2022-08-16T11:38:21;100706.53;;;30.61;100.00
33635;BME280;19972;54.360;10.076;2022-08-16T11:41:08;100674.91;;;31.07;100.00
33635;BME280;19972;54.360;10.076;2022-08-16T11:43:38;100633.81;;;32.01;100.00
33635;BME280;19972;54.360;10.076;2022-08-16T11:46:10;100679.00;;;30.56;100.00
33635;BME280;19972;54.360;10.076;2022-08-16T11:48:57;100622.28;;;32.39;100.00
33635;BME280;19972;54.360;10.076;2022-08-16T11:51:24;100605.91;;;31.57;100.00
33635;BME280;19972;54.360;10.076;2022-08-16T11:53:50;100728.09;;;29.78;100.00
33635;BME280;19972;54.360;10.076;2022-08-16T11:56:18;100647.81;;;31.88;100.00
33635;BME280;19972;54.360;10.076;2022-08-16T11:59:05;100668.06;;;30.98;100.00
33635;BME280;19972;54.360;10.076;2022-08-16T12:01:32;100649.56;;;31.59;100.00
33635;BME280;19972;54.360;10.076;2022-08-16T12:04:19;100612.16;;;32.16;100.00
33635;BME280;19972;54.360;10.076;2022-08-16T12:06:48;100563.25;;;33.04;100.00
33635;BME280;19972;54.360;10.076;2022-08-16T12:09:15;100490.84;;;32.87;100.00
33635;BME280;19972;54.360;10.076;2022-08-16T12:11:42;100490.88;;;33.64;100.00
33635;BME280;19972;54.360;10.076;2022-08-16T12:14:12;100499.22;;;32.92;100.00
33635;BME280;19972;54.360;10.076;2022-08-16T12:16:42;100553.97;;;31.91;100.00
33635;BME280;19972;54.360;10.076;2022-08-16T12:19:21;100510.09;;;32.53;100.00
33635;BME280;19972;54.360;10.076;2022-08-16T12:22:02;100519.34;;;32.47;100.00
33635;BME280;19972;54.360;10.076;2022-08-16T12:24:46;100452.00;;;34.04;100.00
33635;BME280;19972;54.360;10.076;2022-08-16T12:27:19;100500.53;;;32.39;100.00
33635;BME280;19972;54.360;10.076;2022-08-16T12:29:49;100499.72;;;32.89;100.00
33635;BME280;19972;54.360;10.076;2022-08-16T12:32:17;100459.25;;;33.88;100.00
33635;BME280;19972;54.360;10.076;2022-08-16T12:35:04;100417.66;;;33.90;100.00
33635;BME280;19972;54.360;10.076;2022-08-16T12:37:33;100450.22;;;33.93;100.00
33635;BME280;19972;54.360;10.076;2022-08-16T12:40:00;100327.97;;;35.52;100.00
33635;BME280;19972;54.360;10.076;2022-08-16T12:42:27;100438.75;;;34.33;100.00
33635;BME280;19972;54.360;10.076;2022-08-16T12:45:06;100472.69;;;33.63;100.00
33635;BME280;19972;54.360;10.076;2022-08-16T12:47:36;100437.34;;;33.99;100.00
33635;BME280;19972;54.360;10.076;2022-08-16T12:50:44;100558.84;;;32.00;100.00
33635;BME280;19972;54.360;10.076;2022-08-16T12:53:15;100641.88;;;31.02;100.00
33635;BME280;19972;54.360;10.076;2022-08-16T12:55:42;100650.75;;;30.56;100.00
33635;BME280;19972;54.360;10.076;2022-08-16T12:58:10;100702.13;;;30.60;100.00
33635;BME280;19972;54.360;10.076;2022-08-16T13:00:58;100563.91;;;33.11;100.00
33635;BME280;19972;54.360;10.076;2022-08-16T13:03:27;100563.19;;;32.13;100.00